sensor_id;sensor_type;location;lat;lon;timestamp;temperature;humidity
55211;DHT22;41082;52.822;6.666;2023-05-07T00:01:36;14.50;99.90
55211;DHT22;41082;52.822;6.666;2023-05-07T00:04:01;14.50;99.90
55211;DHT22;41082;52.822;6.666;2023-05-07T00:06:29;14.50;99.90
55211;DHT22;41082;52.822;6.666;2023-05-07T00:08:56;14.40;99.90
55211;DHT22;41082;52.822;6.666;2023-05-07T00:11:21;14.50;99.90
55211;DHT22;41082;52.822;6.666;2023-05-07T00:13:48;14.40;99.90
55211;DHT22;41082;52.822;6.666;2023-05-07T00:16:13;14.40;99.90
55211;DHT22;41082;52.822;6.666;2023-05-07T00:18:39;14.40;99.90
55211;DHT22;41082;52.822;6.666;2023-05-07T00:21:05;14.40;99.90
55211;DHT22;41082;52.822;6.666;2023-05-07T00:23:30;14.40;99.90
55211;DHT22;41082;52.822;6.666;2023-05-07T00:25:56;14.40;99.90
55211;DHT22;41082;52.822;6.666;2023-05-07T00:28:22;14.40;99.90
55211;DHT22;41082;52.822;6.666;2023-05-07T00:30:47;14.40;99.90
55211;DHT22;41082;52.822;6.666;2023-05-07T00:33:13;14.40;99.90
55211;DHT22;41082;52.822;6.666;2023-05-07T00:35:38;14.30;99.90
55211;DHT22;41082;52.822;6.666;2023-05-07T00:38:04;14.30;99.90
55211;DHT22;41082;52.822;6.666;2023-05-07T00:40:29;14.30;99.90
55211;DHT22;41082;52.822;6.666;2023-05-07T00:42:55;14.30;99.90
55211;DHT22;41082;52.822;6.666;2023-05-07T00:45:26;14.30;99.90
55211;DHT22;41082;52.822;6.666;2023-05-07T00:47:58;14.30;99.90
55211;DHT22;41082;52.822;6.666;2023-05-07T00:50:24;14.30;99.90
55211;DHT22;41082;52.822;6.666;2023-05-07T00:52:50;14.30;99.90
55211;DHT22;41082;52.822;6.666;2023-05-07T00:55:16;14.30;99.90
55211;DHT22;41082;52.822;6.666;2023-05-07T00:57:42;14.30;99.90
55211;DHT22;41082;52.822;6.666;2023-05-07T01:00:09;14.20;99.90
55211;DHT22;41082;52.822;6.666;2023-05-07T01:02:35;14.20;99.90
55211;DHT22;41082;52.822;6.666;2023-05-07T01:05:02;14.20;99.90
55211;DHT22;41082;52.822;6.666;2023-05-07T01:07:31;14.20;99.90
55211;DHT22;41082;52.822;6.666;2023-05-07T01:09:57;14.20;99.90
55211;DHT22;41082;52.822;6.666;2023-05-07T01:12:23;14.20;99.90
55211;DHT22;41082;52.822;6.666;2023-05-07T01:14:49;14.20;99.90
55211;DHT22;41082;52.822;6.666;2023-05-07T01:17:16;14.10;99.90
55211;DHT22;41082;52.822;6.666;2023-05-07T01:19:42;14.10;99.90
55211;DHT22;41082;52.822;6.666;2023-05-07T01:22:09;14.10;99.90
55211;DHT22;41082;52.822;6.666;2023-05-07T01:24:37;14.10;99.90
55211;DHT22;41082;52.822;6.666;2023-05-07T01:27:03;14.10;99.90
55211;DHT22;41082;52.822;6.666;2023-05-07T01:29:28;14.00;99.90
55211;DHT22;41082;52.822;6.666;2023-05-07T01:31:57;14.00;99.90
55211;DHT22;41082;52.822;6.666;2023-05-07T01:34:25;14.00;99.90
55211;DHT22;41082;52.822;6.666;2023-05-07T01:36:53;14.00;99.90
55211;DHT22;41082;52.822;6.666;2023-05-07T01:39:27;14.00;99.90
55211;DHT22;41082;52.822;6.666;2023-05-07T01:41:56;13.90;99.90
55211;DHT22;41082;52.822;6.666;2023-05-07T01:44:22;13.90;99.90
55211;DHT22;41082;52.822;6.666;2023-05-07T01:46:49;13.90;99.90
55211;DHT22;41082;52.822;6.666;2023-05-07T01:49:16;13.80;99.90
55211;DHT22;41082;52.822;6.666;2023-05-07T01:51:42;13.80;99.90
55211;DHT22;41082;52.822;6.666;2023-05-07T01:54:08;13.80;99.90
55211;DHT22;41082;52.822;6.666;2023-05-07T01:56:34;13.80;99.90
55211;DHT22;41082;52.822;6.666;2023-05-07T01:58:59;13.70;99.90
55211;DHT22;41082;52.822;6.666;2023-05-07T02:01:25;13.70;99.90
55211;DHT22;41082;52.822;6.666;2023-05-07T02:03:51;13.70;99.90
55211;DHT22;41082;52.822;6.666;2023-05-07T02:06:16;13.70;99.90
55211;DHT22;41082;52.822;6.666;2023-05-07T02:08:42;13.60;99.90
55211;DHT22;41082;52.822;6.666;2023-05-07T02:11:08;13.60;99.90
55211;DHT22;41082;52.822;6.666;2023-05-07T02:13:33;13.60;99.90
55211;DHT22;41082;52.822;6.666;2023-05-07T02:16:02;13.60;99.90
55211;DHT22;41082;52.822;6.666;2023-05-07T02:18:28;13.60;99.90
55211;DHT22;41082;52.822;6.666;2023-05-07T02:20:54;13.60;99.90
55211;DHT22;41082;52.822;6.666;2023-05-07T02:23:20;13.50;99.90
55211;DHT22;41082;52.822;6.666;2023-05-07T02:25:45;13.40;99.90
55211;DHT22;41082;52.822;6.666;2023-05-07T02:28:11;13.40;99.90
55211;DHT22;41082;52.822;6.666;2023-05-07T02:30:38;13.40;99.90
55211;DHT22;41082;52.822;6.666;2023-05-07T02:33:03;13.40;99.90
55211;DHT22;41082;52.822;6.666;2023-05-07T02:35:29;13.40;99.90
55211;DHT22;41082;52.822;6.666;2023-05-07T02:37:54;13.30;99.90
55211;DHT22;41082;52.822;6.666;2023-05-07T02:40:20;13.30;99.90
55211;DHT22;41082;52.822;6.666;2023-05-07T02:42:46;13.30;99.90
55211;DHT22;41082;52.822;6.666;2023-05-07T02:45:11;13.30;99.90
55211;DHT22;41082;52.822;6.666;2023-05-07T02:47:37;13.30;99.90
55211;DHT22;41082;52.822;6.666;2023-05-07T02:50:03;13.30;99.90
55211;DHT22;41082;52.822;6.666;2023-05-07T02:52:29;13.30;99.90
55211;DHT22;41082;52.822;6.666;2023-05-07T02:54:54;13.20;99.90
55211;DHT22;41082;52.822;6.666;2023-05-07T02:57:20;13.20;99.90
55211;DHT22;41082;52.822;6.666;2023-05-07T02:59:46;13.20;99.90
55211;DHT22;41082;52.822;6.666;2023-05-07T03:02:11;13.20;99.90
55211;DHT22;41082;52.822;6.666;2023-05-07T03:04:37;13.20;99.90
55211;DHT22;41082;52.822;6.666;2023-05-07T03:07:03;13.10;99.90
55211;DHT22;41082;52.822;6.666;2023-05-07T03:09:28;13.10;99.90
55211;DHT22;41082;52.822;6.666;2023-05-07T03:11:54;13.10;99.90
55211;DHT22;41082;52.822;6.666;2023-05-07T03:14:19;13.10;99.90
55211;DHT22;41082;52.822;6.666;2023-05-07T03:16:45;13.00;99.90
55211;DHT22;41082;52.822;6.666;2023-05-07T03:19:11;13.10;99.90
55211;DHT22;41082;52.822;6.666;2023-05-07T03:21:36;13.10;99.90
55211;DHT22;41082;52.822;6.666;2023-05-07T03:24:02;13.00;99.90
55211;DHT22;41082;52.822;6.666;2023-05-07T03:26:27;13.00;99.90
55211;DHT22;41082;52.822;6.666;2023-05-07T03:28:54;13.00;99.90
55211;DHT22;41082;52.822;6.666;2023-05-07T03:31:20;12.90;99.90
55211;DHT22;41082;52.822;6.666;2023-05-07T03:33:54;13.00;99.90
55211;DHT22;41082;52.822;6.666;2023-05-07T03:36:20;12.90;99.90
55211;DHT22;41082;52.822;6.666;2023-05-07T03:38:46;12.90;99.90
55211;DHT22;41082;52.822;6.666;2023-05-07T03:41:12;12.90;99.90
55211;DHT22;41082;52.822;6.666;2023-05-07T03:43:37;12.90;99.90
55211;DHT22;41082;52.822;6.666;2023-05-07T03:46:03;12.90;99.90
55211;DHT22;41082;52.822;6.666;2023-05-07T03:48:28;12.90;99.90
55211;DHT22;41082;52.822;6.666;2023-05-07T03:50:57;12.90;99.90
55211;DHT22;41082;52.822;6.666;2023-05-07T03:53:22;12.80;99.90
55211;DHT22;41082;52.822;6.666;2023-05-07T03:55:48;12.80;99.90
55211;DHT22;41082;52.822;6.666;2023-05-07T03:58:13;12.80;99.90
55211;DHT22;41082;52.822;6.666;2023-05-07T04:00:39;12.80;99.90
55211;DHT22;41082;52.822;6.666;2023-05-07T04:03:06;12.80;99.90
55211;DHT22;41082;52.822;6.666;2023-05-07T04:05:31;12.80;99.90
55211;DHT22;41082;52.822;6.666;2023-05-07T04:08:00;12.80;99.90
55211;DHT22;41082;52.822;6.666;2023-05-07T04:10:26;12.70;99.90
55211;DHT22;41082;52.822;6.666;2023-05-07T04:12:53;12.70;99.90
55211;DHT22;41082;52.822;6.666;2023-05-07T04:15:19;12.80;99.90
55211;DHT22;41082;52.822;6.666;2023-05-07T04:17:45;12.80;99.90
55211;DHT22;41082;52.822;6.666;2023-05-07T04:20:16;12.70;99.90
55211;DHT22;41082;52.822;6.666;2023-05-07T04:22:42;12.70;99.90
55211;DHT22;41082;52.822;6.666;2023-05-07T04:25:08;12.70;99.90
55211;DHT22;41082;52.822;6.666;2023-05-07T04:27:37;12.70;99.90
55211;DHT22;41082;52.822;6.666;2023-05-07T04:30:03;12.70;99.90
55211;DHT22;41082;52.822;6.666;2023-05-07T04:32:29;12.70;99.90
55211;DHT22;41082;52.822;6.666;2023-05-07T04:34:55;12.70;99.90
55211;DHT22;41082;52.822;6.666;2023-05-07T04:37:21;12.70;99.90
55211;DHT22;41082;52.822;6.666;2023-05-07T04:39:47;12.70;99.90
55211;DHT22;41082;52.822;6.666;2023-05-07T04:42:16;12.70;99.90
55211;DHT22;41082;52.822;6.666;2023-05-07T04:44:43;12.70;99.90
55211;DHT22;41082;52.822;6.666;2023-05-07T04:47:09;12.70;99.90
55211;DHT22;41082;52.822;6.666;2023-05-07T04:49:35;12.70;99.90
55211;DHT22;41082;52.822;6.666;2023-05-07T04:52:01;12.80;99.90
55211;DHT22;41082;52.822;6.666;2023-05-07T04:54:26;12.80;99.90
55211;DHT22;41082;52.822;6.666;2023-05-07T04:56:52;12.70;99.90
55211;DHT22;41082;52.822;6.666;2023-05-07T04:59:17;12.80;99.90
55211;DHT22;41082;52.822;6.666;2023-05-07T05:01:43;12.80;99.90
55211;DHT22;41082;52.822;6.666;2023-05-07T05:04:09;12.80;99.90
55211;DHT22;41082;52.822;6.666;2023-05-07T05:06:35;12.80;99.90
55211;DHT22;41082;52.822;6.666;2023-05-07T05:09:01;12.80;99.90
55211;DHT22;41082;52.822;6.666;2023-05-07T05:11:26;12.80;99.90
55211;DHT22;41082;52.822;6.666;2023-05-07T05:13:52;12.80;99.90
55211;DHT22;41082;52.822;6.666;2023-05-07T05:16:17;12.80;99.90
55211;DHT22;41082;52.822;6.666;2023-05-07T05:18:43;12.80;99.90
55211;DHT22;41082;52.822;6.666;2023-05-07T05:21:09;12.80;99.90
55211;DHT22;41082;52.822;6.666;2023-05-07T05:23:34;12.90;99.90
55211;DHT22;41082;52.822;6.666;2023-05-07T05:26:00;12.90;99.90
55211;DHT22;41082;52.822;6.666;2023-05-07T05:28:25;12.90;99.90
55211;DHT22;41082;52.822;6.666;2023-05-07T05:30:51;12.90;99.90
55211;DHT22;41082;52.822;6.666;2023-05-07T05:33:16;12.90;99.90
55211;DHT22;41082;52.822;6.666;2023-05-07T05:35:42;12.90;99.90
55211;DHT22;41082;52.822;6.666;2023-05-07T05:38:08;13.00;99.90
55211;DHT22;41082;52.822;6.666;2023-05-07T05:40:33;13.00;99.90
55211;DHT22;41082;52.822;6.666;2023-05-07T05:42:59;13.10;99.90
55211;DHT22;41082;52.822;6.666;2023-05-07T05:45:25;13.10;99.90
55211;DHT22;41082;52.822;6.666;2023-05-07T05:47:51;13.20;99.90
55211;DHT22;41082;52.822;6.666;2023-05-07T05:50:17;13.20;99.90
55211;DHT22;41082;52.822;6.666;2023-05-07T05:52:42;13.30;99.90
55211;DHT22;41082;52.822;6.666;2023-05-07T05:55:08;13.40;99.90
55211;DHT22;41082;52.822;6.666;2023-05-07T05:57:34;13.40;99.90
55211;DHT22;41082;52.822;6.666;2023-05-07T06:00:00;13.50;99.90
55211;DHT22;41082;52.822;6.666;2023-05-07T06:02:26;13.50;99.90
55211;DHT22;41082;52.822;6.666;2023-05-07T06:04:52;13.50;99.90
55211;DHT22;41082;52.822;6.666;2023-05-07T06:07:17;13.60;99.90
55211;DHT22;41082;52.822;6.666;2023-05-07T06:09:43;13.60;99.90
55211;DHT22;41082;52.822;6.666;2023-05-07T06:12:09;13.60;99.90
55211;DHT22;41082;52.822;6.666;2023-05-07T06:14:35;13.70;99.90
55211;DHT22;41082;52.822;6.666;2023-05-07T06:17:00;13.80;99.90
55211;DHT22;41082;52.822;6.666;2023-05-07T06:19:26;13.80;99.90
55211;DHT22;41082;52.822;6.666;2023-05-07T06:21:53;13.80;99.90
55211;DHT22;41082;52.822;6.666;2023-05-07T06:24:19;13.80;99.90
55211;DHT22;41082;52.822;6.666;2023-05-07T06:26:44;13.90;99.90
55211;DHT22;41082;52.822;6.666;2023-05-07T06:29:10;13.90;99.90
55211;DHT22;41082;52.822;6.666;2023-05-07T06:31:36;14.00;99.90
55211;DHT22;41082;52.822;6.666;2023-05-07T06:34:01;14.00;99.90
55211;DHT22;41082;52.822;6.666;2023-05-07T06:36:28;14.00;99.90
55211;DHT22;41082;52.822;6.666;2023-05-07T06:38:53;14.00;99.90
55211;DHT22;41082;52.822;6.666;2023-05-07T06:41:20;14.00;99.90
55211;DHT22;41082;52.822;6.666;2023-05-07T06:43:45;14.00;99.90
55211;DHT22;41082;52.822;6.666;2023-05-07T06:46:11;14.00;99.90
55211;DHT22;41082;52.822;6.666;2023-05-07T06:48:37;14.00;99.90
55211;DHT22;41082;52.822;6.666;2023-05-07T06:51:02;14.00;99.90
55211;DHT22;41082;52.822;6.666;2023-05-07T06:53:28;14.00;99.90
55211;DHT22;41082;52.822;6.666;2023-05-07T06:55:56;14.10;99.90
55211;DHT22;41082;52.822;6.666;2023-05-07T06:58:21;14.10;99.90
55211;DHT22;41082;52.822;6.666;2023-05-07T07:00:47;14.10;99.90
55211;DHT22;41082;52.822;6.666;2023-05-07T07:03:12;14.20;99.90
55211;DHT22;41082;52.822;6.666;2023-05-07T07:05:39;14.20;99.90
55211;DHT22;41082;52.822;6.666;2023-05-07T07:08:05;14.20;99.90
55211;DHT22;41082;52.822;6.666;2023-05-07T07:10:31;14.20;99.90
55211;DHT22;41082;52.822;6.666;2023-05-07T07:12:56;14.30;99.90
55211;DHT22;41082;52.822;6.666;2023-05-07T07:15:22;14.40;99.90
55211;DHT22;41082;52.822;6.666;2023-05-07T07:17:50;14.40;99.90
55211;DHT22;41082;52.822;6.666;2023-05-07T07:20:16;14.50;99.90
55211;DHT22;41082;52.822;6.666;2023-05-07T07:22:41;14.60;99.90
55211;DHT22;41082;52.822;6.666;2023-05-07T07:25:07;14.70;99.90
55211;DHT22;41082;52.822;6.666;2023-05-07T07:27:33;14.70;99.90
55211;DHT22;41082;52.822;6.666;2023-05-07T07:29:58;14.70;99.90
55211;DHT22;41082;52.822;6.666;2023-05-07T07:32:24;14.70;99.90
55211;DHT22;41082;52.822;6.666;2023-05-07T07:34:49;14.80;99.90
55211;DHT22;41082;52.822;6.666;2023-05-07T07:37:15;14.80;99.90
55211;DHT22;41082;52.822;6.666;2023-05-07T07:39:41;14.80;99.90
55211;DHT22;41082;52.822;6.666;2023-05-07T07:42:06;14.80;99.90
55211;DHT22;41082;52.822;6.666;2023-05-07T07:44:32;14.90;99.90
55211;DHT22;41082;52.822;6.666;2023-05-07T07:46:57;15.00;99.90
55211;DHT22;41082;52.822;6.666;2023-05-07T07:49:23;15.00;99.90
55211;DHT22;41082;52.822;6.666;2023-05-07T07:51:48;15.10;99.90
55211;DHT22;41082;52.822;6.666;2023-05-07T07:54:14;15.10;99.90
55211;DHT22;41082;52.822;6.666;2023-05-07T07:56:39;15.20;99.90
55211;DHT22;41082;52.822;6.666;2023-05-07T07:59:05;15.30;99.90
55211;DHT22;41082;52.822;6.666;2023-05-07T08:01:31;15.40;99.90
55211;DHT22;41082;52.822;6.666;2023-05-07T08:03:56;15.40;99.90
55211;DHT22;41082;52.822;6.666;2023-05-07T08:06:24;15.50;99.90
55211;DHT22;41082;52.822;6.666;2023-05-07T08:08:51;15.60;99.90
55211;DHT22;41082;52.822;6.666;2023-05-07T08:11:16;15.60;99.90
55211;DHT22;41082;52.822;6.666;2023-05-07T08:13:42;15.70;99.90
55211;DHT22;41082;52.822;6.666;2023-05-07T08:16:08;15.80;99.90
55211;DHT22;41082;52.822;6.666;2023-05-07T08:18:34;15.90;99.90
55211;DHT22;41082;52.822;6.666;2023-05-07T08:21:00;15.90;99.90
55211;DHT22;41082;52.822;6.666;2023-05-07T08:23:26;16.00;99.90
55211;DHT22;41082;52.822;6.666;2023-05-07T08:25:52;16.10;99.90
55211;DHT22;41082;52.822;6.666;2023-05-07T08:28:17;16.20;99.90
55211;DHT22;41082;52.822;6.666;2023-05-07T08:30:43;16.40;99.90
55211;DHT22;41082;52.822;6.666;2023-05-07T08:33:09;16.40;99.90
55211;DHT22;41082;52.822;6.666;2023-05-07T08:35:35;16.50;99.90
55211;DHT22;41082;52.822;6.666;2023-05-07T08:38:00;16.60;99.90
55211;DHT22;41082;52.822;6.666;2023-05-07T08:40:26;16.70;99.90
55211;DHT22;41082;52.822;6.666;2023-05-07T08:42:53;16.70;99.90
55211;DHT22;41082;52.822;6.666;2023-05-07T08:45:20;16.80;99.90
55211;DHT22;41082;52.822;6.666;2023-05-07T08:47:52;16.90;99.90
55211;DHT22;41082;52.822;6.666;2023-05-07T08:50:20;17.00;99.90
55211;DHT22;41082;52.822;6.666;2023-05-07T08:52:47;17.00;99.90
55211;DHT22;41082;52.822;6.666;2023-05-07T08:55:13;17.10;99.90
55211;DHT22;41082;52.822;6.666;2023-05-07T08:57:38;17.20;99.90
55211;DHT22;41082;52.822;6.666;2023-05-07T09:00:04;17.30;99.90
55211;DHT22;41082;52.822;6.666;2023-05-07T09:02:32;17.30;99.90
55211;DHT22;41082;52.822;6.666;2023-05-07T09:04:58;17.40;99.90
55211;DHT22;41082;52.822;6.666;2023-05-07T09:07:24;17.60;99.90
55211;DHT22;41082;52.822;6.666;2023-05-07T09:09:50;17.70;99.90
55211;DHT22;41082;52.822;6.666;2023-05-07T09:12:17;17.90;99.90
55211;DHT22;41082;52.822;6.666;2023-05-07T09:14:43;18.10;99.90
55211;DHT22;41082;52.822;6.666;2023-05-07T09:17:09;18.20;99.90
55211;DHT22;41082;52.822;6.666;2023-05-07T09:19:35;18.40;99.90
55211;DHT22;41082;52.822;6.666;2023-05-07T09:22:04;18.50;99.90
55211;DHT22;41082;52.822;6.666;2023-05-07T09:24:32;18.60;99.90
55211;DHT22;41082;52.822;6.666;2023-05-07T09:27:04;18.70;99.90
55211;DHT22;41082;52.822;6.666;2023-05-07T09:29:30;18.80;99.90
55211;DHT22;41082;52.822;6.666;2023-05-07T09:32:03;18.90;99.90
55211;DHT22;41082;52.822;6.666;2023-05-07T09:34:30;18.90;99.90
55211;DHT22;41082;52.822;6.666;2023-05-07T09:36:57;19.00;99.90
55211;DHT22;41082;52.822;6.666;2023-05-07T09:39:24;19.00;99.90
55211;DHT22;41082;52.822;6.666;2023-05-07T09:41:49;19.10;99.90
55211;DHT22;41082;52.822;6.666;2023-05-07T09:44:16;19.20;99.90
55211;DHT22;41082;52.822;6.666;2023-05-07T09:46:43;19.40;99.90
55211;DHT22;41082;52.822;6.666;2023-05-07T09:49:21;19.50;99.90
55211;DHT22;41082;52.822;6.666;2023-05-07T09:51:51;19.60;99.90
55211;DHT22;41082;52.822;6.666;2023-05-07T09:54:18;19.70;99.90
55211;DHT22;41082;52.822;6.666;2023-05-07T09:56:44;19.80;99.90
55211;DHT22;41082;52.822;6.666;2023-05-07T09:59:14;19.90;99.90
55211;DHT22;41082;52.822;6.666;2023-05-07T10:01:42;20.00;99.90
55211;DHT22;41082;52.822;6.666;2023-05-07T10:04:09;20.30;99.90
55211;DHT22;41082;52.822;6.666;2023-05-07T10:06:36;20.40;99.90
55211;DHT22;41082;52.822;6.666;2023-05-07T10:09:03;20.50;99.90
55211;DHT22;41082;52.822;6.666;2023-05-07T10:11:35;20.60;99.90
55211;DHT22;41082;52.822;6.666;2023-05-07T10:14:02;20.60;99.90
55211;DHT22;41082;52.822;6.666;2023-05-07T10:16:32;20.60;99.90
55211;DHT22;41082;52.822;6.666;2023-05-07T10:19:02;20.60;99.90
55211;DHT22;41082;52.822;6.666;2023-05-07T10:21:29;20.70;99.90
55211;DHT22;41082;52.822;6.666;2023-05-07T10:24:00;20.80;99.90
55211;DHT22;41082;52.822;6.666;2023-05-07T10:26:31;20.80;99.90
55211;DHT22;41082;52.822;6.666;2023-05-07T10:29:05;21.00;99.90
55211;DHT22;41082;52.822;6.666;2023-05-07T10:31:53;21.10;99.90
55211;DHT22;41082;52.822;6.666;2023-05-07T10:34:24;21.20;99.90
55211;DHT22;41082;52.822;6.666;2023-05-07T10:36:52;21.30;99.90
55211;DHT22;41082;52.822;6.666;2023-05-07T10:39:19;21.50;99.90
55211;DHT22;41082;52.822;6.666;2023-05-07T10:41:45;21.60;99.90
55211;DHT22;41082;52.822;6.666;2023-05-07T10:44:11;21.80;99.90
55211;DHT22;41082;52.822;6.666;2023-05-07T10:46:37;21.90;99.90
55211;DHT22;41082;52.822;6.666;2023-05-07T10:51:29;22.10;99.90
55211;DHT22;41082;52.822;6.666;2023-05-07T10:54:19;22.10;99.90
55211;DHT22;41082;52.822;6.666;2023-05-07T10:56:45;22.30;99.90
55211;DHT22;41082;52.822;6.666;2023-05-07T11:01:57;22.40;99.90
55211;DHT22;41082;52.822;6.666;2023-05-07T11:04:23;22.40;99.90
55211;DHT22;41082;52.822;6.666;2023-05-07T11:15:12;23.20;99.90
55211;DHT22;41082;52.822;6.666;2023-05-07T11:17:58;23.40;99.90
55211;DHT22;41082;52.822;6.666;2023-05-07T11:26:13;23.70;99.90
55211;DHT22;41082;52.822;6.666;2023-05-07T11:28:40;23.80;99.80
55211;DHT22;41082;52.822;6.666;2023-05-07T11:31:06;23.80;99.50
55211;DHT22;41082;52.822;6.666;2023-05-07T11:33:32;23.90;98.70
55211;DHT22;41082;52.822;6.666;2023-05-07T11:35:59;23.90;98.50
55211;DHT22;41082;52.822;6.666;2023-05-07T11:38:25;23.90;98.10
55211;DHT22;41082;52.822;6.666;2023-05-07T11:40:59;23.80;98.30
55211;DHT22;41082;52.822;6.666;2023-05-07T11:43:26;23.70;97.90
55211;DHT22;41082;52.822;6.666;2023-05-07T11:45:52;23.70;97.90
55211;DHT22;41082;52.822;6.666;2023-05-07T11:48:18;23.60;98.00
55211;DHT22;41082;52.822;6.666;2023-05-07T11:51:00;23.60;97.70
55211;DHT22;41082;52.822;6.666;2023-05-07T11:53:26;23.60;97.90
55211;DHT22;41082;52.822;6.666;2023-05-07T11:55:56;23.50;97.50
55211;DHT22;41082;52.822;6.666;2023-05-07T11:58:23;23.50;97.70
55211;DHT22;41082;52.822;6.666;2023-05-07T12:00:53;23.50;97.60
55211;DHT22;41082;52.822;6.666;2023-05-07T12:03:19;23.50;97.60
55211;DHT22;41082;52.822;6.666;2023-05-07T12:05:45;23.50;97.60
55211;DHT22;41082;52.822;6.666;2023-05-07T12:08:15;23.40;97.70
55211;DHT22;41082;52.822;6.666;2023-05-07T12:10:42;23.40;98.00
55211;DHT22;41082;52.822;6.666;2023-05-07T12:13:22;23.40;97.90
55211;DHT22;41082;52.822;6.666;2023-05-07T12:15:52;23.30;98.20
55211;DHT22;41082;52.822;6.666;2023-05-07T12:18:18;23.40;98.60
55211;DHT22;41082;52.822;6.666;2023-05-07T12:20:44;23.30;98.40
55211;DHT22;41082;52.822;6.666;2023-05-07T12:23:10;23.30;98.20
55211;DHT22;41082;52.822;6.666;2023-05-07T12:25:40;23.40;97.90
55211;DHT22;41082;52.822;6.666;2023-05-07T12:28:12;23.40;97.80
55211;DHT22;41082;52.822;6.666;2023-05-07T12:30:38;23.50;98.00
55211;DHT22;41082;52.822;6.666;2023-05-07T12:33:04;23.60;98.20
55211;DHT22;41082;52.822;6.666;2023-05-07T12:35:31;23.60;98.00
55211;DHT22;41082;52.822;6.666;2023-05-07T12:37:58;23.60;97.80
55211;DHT22;41082;52.822;6.666;2023-05-07T12:40:42;23.60;98.00
55211;DHT22;41082;52.822;6.666;2023-05-07T12:43:16;23.60;97.90
55211;DHT22;41082;52.822;6.666;2023-05-07T12:45:43;23.60;97.70
55211;DHT22;41082;52.822;6.666;2023-05-07T12:48:12;23.50;97.30
55211;DHT22;41082;52.822;6.666;2023-05-07T12:50:37;23.50;96.90
55211;DHT22;41082;52.822;6.666;2023-05-07T12:53:04;23.40;97.20
55211;DHT22;41082;52.822;6.666;2023-05-07T12:55:41;23.30;97.40
55211;DHT22;41082;52.822;6.666;2023-05-07T12:58:07;23.30;97.60
55211;DHT22;41082;52.822;6.666;2023-05-07T13:00:37;23.20;97.50
55211;DHT22;41082;52.822;6.666;2023-05-07T13:03:03;23.10;97.20
55211;DHT22;41082;52.822;6.666;2023-05-07T13:05:28;23.00;97.30
55211;DHT22;41082;52.822;6.666;2023-05-07T13:07:54;23.00;97.30
55211;DHT22;41082;52.822;6.666;2023-05-07T13:10:24;22.90;97.10
55211;DHT22;41082;52.822;6.666;2023-05-07T13:12:51;22.80;97.20
55211;DHT22;41082;52.822;6.666;2023-05-07T13:15:17;22.90;97.50
55211;DHT22;41082;52.822;6.666;2023-05-07T13:17:43;22.80;97.90
55211;DHT22;41082;52.822;6.666;2023-05-07T13:20:12;22.90;98.30
55211;DHT22;41082;52.822;6.666;2023-05-07T13:22:41;22.90;98.50
55211;DHT22;41082;52.822;6.666;2023-05-07T13:25:07;22.90;98.20
55211;DHT22;41082;52.822;6.666;2023-05-07T13:27:32;22.90;97.80
55211;DHT22;41082;52.822;6.666;2023-05-07T13:30:02;23.00;97.90
55211;DHT22;41082;52.822;6.666;2023-05-07T13:32:28;23.00;98.20
55211;DHT22;41082;52.822;6.666;2023-05-07T13:34:55;23.00;98.40
55211;DHT22;41082;52.822;6.666;2023-05-07T13:37:20;23.10;98.70
55211;DHT22;41082;52.822;6.666;2023-05-07T13:39:46;23.10;98.70
55211;DHT22;41082;52.822;6.666;2023-05-07T13:42:11;23.20;98.50
55211;DHT22;41082;52.822;6.666;2023-05-07T13:44:37;23.30;97.90
55211;DHT22;41082;52.822;6.666;2023-05-07T13:47:02;23.30;97.40
55211;DHT22;41082;52.822;6.666;2023-05-07T13:49:28;23.30;97.50
55211;DHT22;41082;52.822;6.666;2023-05-07T13:51:54;23.20;97.50
55211;DHT22;41082;52.822;6.666;2023-05-07T13:54:19;23.10;97.60
55211;DHT22;41082;52.822;6.666;2023-05-07T13:56:45;23.10;97.60
55211;DHT22;41082;52.822;6.666;2023-05-07T13:59:10;23.00;97.60
55211;DHT22;41082;52.822;6.666;2023-05-07T14:01:36;23.00;98.00
55211;DHT22;41082;52.822;6.666;2023-05-07T14:04:01;22.90;98.10
55211;DHT22;41082;52.822;6.666;2023-05-07T14:06:27;22.80;97.90
55211;DHT22;41082;52.822;6.666;2023-05-07T14:08:53;22.80;97.90
55211;DHT22;41082;52.822;6.666;2023-05-07T14:11:18;22.70;98.00
55211;DHT22;41082;52.822;6.666;2023-05-07T14:13:44;22.80;98.10
55211;DHT22;41082;52.822;6.666;2023-05-07T14:16:09;22.80;98.40
55211;DHT22;41082;52.822;6.666;2023-05-07T14:18:35;22.90;98.40
55211;DHT22;41082;52.822;6.666;2023-05-07T14:21:02;22.80;98.40
55211;DHT22;41082;52.822;6.666;2023-05-07T14:23:28;22.80;98.60
55211;DHT22;41082;52.822;6.666;2023-05-07T14:25:53;22.80;99.00
55211;DHT22;41082;52.822;6.666;2023-05-07T14:28:19;22.80;99.10
55211;DHT22;41082;52.822;6.666;2023-05-07T14:30:45;22.70;99.40
55211;DHT22;41082;52.822;6.666;2023-05-07T14:33:10;22.60;99.50
55211;DHT22;41082;52.822;6.666;2023-05-07T14:35:36;22.50;99.40
55211;DHT22;41082;52.822;6.666;2023-05-07T14:38:02;22.40;99.40
55211;DHT22;41082;52.822;6.666;2023-05-07T14:40:27;22.40;99.60
55211;DHT22;41082;52.822;6.666;2023-05-07T14:42:53;22.30;99.80
55211;DHT22;41082;52.822;6.666;2023-05-07T14:45:20;22.20;99.80
55211;DHT22;41082;52.822;6.666;2023-05-07T14:47:46;22.20;99.90
55211;DHT22;41082;52.822;6.666;2023-05-07T14:50:11;22.10;99.90
55211;DHT22;41082;52.822;6.666;2023-05-07T14:52:37;22.10;99.90
55211;DHT22;41082;52.822;6.666;2023-05-07T14:55:03;22.00;99.90
55211;DHT22;41082;52.822;6.666;2023-05-07T14:57:28;22.00;99.90
55211;DHT22;41082;52.822;6.666;2023-05-07T14:59:54;21.90;99.90
55211;DHT22;41082;52.822;6.666;2023-05-07T15:02:20;21.90;99.90
55211;DHT22;41082;52.822;6.666;2023-05-07T15:04:46;21.90;99.90
55211;DHT22;41082;52.822;6.666;2023-05-07T15:07:12;21.90;99.90
55211;DHT22;41082;52.822;6.666;2023-05-07T15:09:41;21.90;99.90
55211;DHT22;41082;52.822;6.666;2023-05-07T15:12:06;22.00;99.90
55211;DHT22;41082;52.822;6.666;2023-05-07T15:14:33;22.00;99.90
55211;DHT22;41082;52.822;6.666;2023-05-07T15:16:58;22.00;99.90
55211;DHT22;41082;52.822;6.666;2023-05-07T15:19:24;22.10;99.90
55211;DHT22;41082;52.822;6.666;2023-05-07T15:21:57;22.00;99.90
55211;DHT22;41082;52.822;6.666;2023-05-07T15:24:23;22.10;99.90
55211;DHT22;41082;52.822;6.666;2023-05-07T15:26:51;22.10;99.90
55211;DHT22;41082;52.822;6.666;2023-05-07T15:29:17;22.20;99.90
55211;DHT22;41082;52.822;6.666;2023-05-07T15:31:42;22.30;99.90
55211;DHT22;41082;52.822;6.666;2023-05-07T15:34:08;22.30;99.90
55211;DHT22;41082;52.822;6.666;2023-05-07T15:36:33;22.20;99.90
55211;DHT22;41082;52.822;6.666;2023-05-07T15:38:59;22.20;99.90
55211;DHT22;41082;52.822;6.666;2023-05-07T15:41:25;22.30;99.90
55211;DHT22;41082;52.822;6.666;2023-05-07T15:43:52;22.40;99.90
55211;DHT22;41082;52.822;6.666;2023-05-07T15:46:18;22.60;99.90